Flight Track Log - Related Links

Times and Time Zones

All times are in EDT time to prevent confusion due to time zone crossing. See the ASQ3843 flight status page for this flight to view local times or setup timezone preferences in your user account.

Time Position Orientation Groundspeed Altitude Reporting Facility
EDT Latitude Longitude Course Direction KTS MPH feet Rate Location/Type
Tue 10:32:45 PM 41.9500 -87.9667 252° West 194 223 3,500  Level Chicago TRACON
Tue 10:33:45 PM 41.9500 -88.0500 270° West 234 269 4,700 1,488 Climbing Chicago TRACON
Tue 10:34:54 PM 41.9461 -88.1350 267° West 225 259 6,700 1,846 Climbing Chicago Center
Tue 10:35:00 PM 41.7937 -88.3883 254° West  Level Estimated
Tue 10:35:55 PM 41.9419 -88.2508 267° West 257 296 8,700  Level Chicago Center
Tue 10:36:00 PM 41.7791 -88.5226 262° West  Level FlightAware Approximate
Tue 10:36:57 PM 41.9358 -88.3550 266° West 277 319 10,300  Level Chicago Center
Tue 10:37:00 PM 41.7313 -88.6421 252° West  Level Estimated
Tue 10:37:58 PM 41.9311 -88.4667 267° West 300 345 11,300  Level Chicago Center
Tue 10:38:59 PM 41.9006 -88.5817 250° West 323 372 12,300 984 Climbing Chicago Center
Tue 10:40:00 PM 41.8686 -88.6994 250° West 337 388 13,300 976 Climbing Chicago Center
Tue 10:41:02 PM 41.8364 -88.8175 250° West 342 394 14,300 976 Climbing Chicago Center
Tue 10:42:03 PM 41.8036 -88.9381 250° West 346 398 15,300 1,082 Climbing Chicago Center
Tue 10:43:04 PM 41.7636 -89.0828 250° West 347 399 16,500 1,082 Climbing Chicago Center
Tue 10:44:05 PM 41.7289 -89.2053 249° West 353 406 17,500 927 Climbing Chicago Center
Tue 10:45:07 PM 41.6953 -89.3267 250° West 353 406 18,400 927 Climbing Chicago Center
Tue 10:46:08 PM 41.6642 -89.4492 251° West 352 405 19,400 934 Climbing Chicago Center
Tue 10:47:09 PM 41.6300 -89.5667 249° West 364 419 20,300 1,033 Climbing Chicago Center
Tue 10:48:10 PM 41.5867 -89.7172 249° West 364 419 21,500 1,073 Climbing Chicago Center
Tue 10:49:12 PM 41.5517 -89.8439 250° West 366 421 22,500 984 Climbing Chicago Center
Tue 10:50:12 PM 41.5156 -89.9703 249° West 368 423 23,500 992 Climbing Chicago Center
Tue 10:51:13 PM 41.4636 -90.0861 239° Southwest 367 422 24,500 984 Climbing Chicago Center
Tue 10:52:14 PM 41.4108 -90.1994 238° Southwest 364 419 25,500 927 Climbing Chicago Center
Tue 10:53:16 PM 41.3583 -90.3136 239° Southwest 363 418 26,400 927 Climbing Chicago Center
Tue 10:54:17 PM 41.3061 -90.4258 238° Southwest 361 415 27,400 984 Climbing Chicago Center
Tue 10:55:18 PM 41.2536 -90.5394 238° Southwest 364 419 28,400 984 Climbing Chicago Center
Tue 10:56:19 PM 41.2006 -90.6517 238° Southwest 361 415 29,400 984 Climbing Chicago Center
Tue 10:57:20 PM 41.1492 -90.7622 238° Southwest 355 409 30,400 1,082 Climbing Chicago Center
Tue 10:58:21 PM 41.0864 -90.8936 238° Southwest 352 405 31,600 1,082 Climbing Chicago Center
Tue 10:59:22 PM 41.0344 -91.0047 238° Southwest 354 407 32,600 984 Climbing Chicago Center
Tue 11:00:23 PM 40.9825 -91.1139 238° Southwest 353 406 33,600 934 Climbing Chicago Center
Tue 11:01:24 PM 40.9308 -91.2208 237° Southwest 349 402 34,500 934 Climbing Chicago Center
Tue 11:02:25 PM 40.8803 -91.3267 238° Southwest 346 398 35,500 738 Climbing Chicago Center
Tue 11:03:26 PM 40.8289 -91.4339 238° Southwest 348 400 36,000 170 Climbing Chicago Center
Tue 11:05:21 PM 40.7189 -91.6586 237° Southwest 370 426 36,000  Level Kansas City Center
Tue 11:06:23 PM 40.6597 -91.7808 237° Southwest 392 451 36,000  Level Kansas City Center
Tue 11:07:23 PM 40.5994 -91.9047 237° Southwest 402 463 36,000  Level Kansas City Center
Tue 11:08:24 PM 40.5378 -92.0306 237° Southwest 410 472 36,000  Level Kansas City Center
Tue 11:09:25 PM 40.4769 -92.1558 237° Southwest 411 473 36,000  Level Kansas City Center
Tue 11:10:26 PM 40.4164 -92.2778 237° Southwest 405 466 36,000  Level Kansas City Center
Tue 11:11:27 PM 40.3517 -92.4081 237° Southwest 400 460 36,000  Level Kansas City Center
Tue 11:12:28 PM 40.2906 -92.5314 237° Southwest 403 464 36,000  Level Kansas City Center
Tue 11:13:29 PM 40.2217 -92.6728 237° Southwest 409 471 36,000  Level Kansas City Center
Tue 11:14:30 PM 40.1581 -92.7944 236° Southwest 421 484 36,000  Level Kansas City Center
Tue 11:15:31 PM 40.0967 -92.9175 237° Southwest 422 486 36,000  Level Kansas City Center
Tue 11:16:32 PM 40.0347 -93.0367 236° Southwest 419 482 36,000  Level Kansas City Center
Tue 11:17:32 PM 39.9611 -93.1831 237° Southwest 408 470 36,000  Level Kansas City Center
Tue 11:18:33 PM 39.8994 -93.3039 236° Southwest 404 465 36,000  Level Kansas City Center
Tue 11:19:34 PM 39.8358 -93.4256 236° Southwest 408 470 36,000  Level Kansas City Center
Tue 11:20:35 PM 39.7728 -93.5494 237° Southwest 412 474 36,000  Level Kansas City Center
Tue 11:21:36 PM 39.7097 -93.6739 237° Southwest 415 478 36,000 -49 Level Kansas City Center
Tue 11:22:37 PM 39.6411 -93.8081 236° Southwest 415 478 35,900 -492 Descending Kansas City Center
Tue 11:23:38 PM 39.5783 -93.9278 236° Southwest 418 481 35,000 -934 Descending Kansas City Center
Tue 11:24:39 PM 39.5056 -94.0686 236° Southwest 421 484 34,000 -492 Descending Kansas City Center
Tue 11:25:40 PM 39.4431 -94.1875 236° Southwest 417 480 34,000  Level Kansas City Center
Tue 11:26:41 PM 39.3808 -94.3058 236° Southwest 417 480 34,000  Level Kansas City Center
Tue 11:27:41 PM 39.3067 -94.4458 236° Southwest 418 481 34,000  Level Kansas City Center
Tue 11:28:42 PM 39.2436 -94.5617 235° Southwest 417 480 34,000  Level Kansas City Center
Tue 11:29:43 PM 39.1775 -94.6831 235° Southwest 433 498 34,000  Level Kansas City Center
Tue 11:30:44 PM 39.1139 -94.8061 236° Southwest 430 495 34,000  Level Kansas City Center
Tue 11:31:45 PM 39.0383 -94.9478 236° Southwest 427 491 34,000  Level Kansas City Center
Tue 11:32:46 PM 38.9719 -95.0694 235° Southwest 428 493 34,000  Level Kansas City Center
Tue 11:33:46 PM 38.9067 -95.1925 236° Southwest 430 495 34,000  Level Kansas City Center
Tue 11:34:47 PM 38.8289 -95.3347 235° Southwest 432 497 34,000  Level Kansas City Center
Tue 11:35:48 PM 38.7631 -95.4561 235° Southwest 433 498 34,000  Level Kansas City Center
Tue 11:36:49 PM 38.6969 -95.5783 235° Southwest 434 499 34,000 -246 Level Kansas City Center
Tue 11:37:50 PM 38.6219 -95.7203 236° Southwest 430 495 33,500 -1,587 Descending Kansas City Center
Tue 11:38:50 PM 38.5603 -95.8417 237° Southwest 426 490 30,800 -2,777 Descending Kansas City Center
Tue 11:39:51 PM 38.4997 -95.9586 237° Southwest 415 478 27,900 -3,049 Descending Kansas City Center
Tue 11:40:52 PM 38.4292 -96.0931 236° Southwest 408 470 24,600 -2,066 Descending Kansas City Center
Tue 11:41:53 PM 38.3708 -96.2047 236° Southwest 397 457 23,700 -1,587 Descending Kansas City Center
Tue 11:42:53 PM 38.3156 -96.3103 236° Southwest 378 435 21,400 -2,529 Descending Kansas City Center
Tue 11:43:54 PM 38.2469 -96.4375 236° Southwest 389 448 18,600 -2,508 Descending Kansas City Center
Tue 11:44:55 PM 38.1911 -96.5561 239° Southwest 393 452 16,300 -2,362 Descending Kansas City Center
Tue 11:45:28 PM 38.1686 -96.6186 245° Southwest 379 436 14,900 -2,769 Descending Kansas City Center
Tue 11:45:34 PM 38.1622 -96.6383 248° West 375 432 14,500 -2,889 Descending Kansas City Center
Tue 11:45:55 PM 38.1456 -96.6750 240° Southwest 378 435 13,600 -2,500 Descending Kansas City Center
Tue 11:46:34 PM 38.1075 -96.7406 234° Southwest 349 402 12,000 -2,262 Descending Kansas City Center
Tue 11:46:56 PM 38.0917 -96.7742 239° Southwest 348 400 11,300 -1,562 Descending Kansas City Center
Tue 11:47:47 PM 38.0436 -96.8547 233° Southwest 314 361 10,100 -1,279 Descending Kansas City Center
Tue 11:47:57 PM 38.0392 -96.8658 243° Southwest 326 375 10,000 -1,180 Descending Kansas City Center
Tue 11:48:48 PM 37.9992 -96.9339 233° Southwest 263 303 8,900 -1,279 Descending Kansas City Center
Tue 11:48:58 PM 37.9964 -96.9428 248° West 271 312 8,700 -1,300 Descending Kansas City Center
Tue 11:49:48 PM 37.9561 -97.0072 232° Southwest 256 295 7,600 -1,200 Descending Kansas City Center
Tue 11:49:58 PM 37.9525 -97.0164 243° Southwest 263 303 7,500 -1,180 Descending Kansas City Center
Tue 11:50:49 PM 37.9150 -97.0800 233° Southwest 257 296 6,400 -1,279 Descending Kansas City Center
Tue 11:50:59 PM 37.9128 -97.0894 253° West 255 293 6,200 -1,200 Descending Kansas City Center
Tue 11:51:44 PM 37.8778 -97.1497 234° Southwest 255 293 5,300 -1,180 Descending Kansas City Center
Tue 11:52:00 PM 37.8708 -97.1631 237° Southwest 257 296 5,000 -1,200 Descending Kansas City Center
Tue 11:52:44 PM 37.8389 -97.2222 236° Southwest 254 292 4,100 -1,200 Descending Kansas City Center
Tue 11:53:00 PM 37.8325 -97.2369 241° Southwest 252 290 3,800 -1,180 Descending Kansas City Center
Tue 11:53:45 PM 37.8072 -97.2853 237° Southwest 209 241 2,900 -984 Descending Kansas City Center
Tue 11:54:01 PM 37.8011 -97.2994 241° Southwest 227 261 2,800 -364 Descending Kansas City Center
Tue 11:54:51 PM 37.7828 -97.3369 238° Southwest 125 144 2,500 -295 Descending Kansas City Center
Tue 11:55:02 PM 37.7817 -97.3394 241° Southwest 170 196 2,500 -90 Level Kansas City Center
Tue 11:55:58 PM 37.7547 -97.3706 222° Southwest 122 140 2,400 -98 Descending Kansas City Center
Tue 11:56:03 PM 37.7553 -97.3714 310° West 144 166 2,400 -98 Level Kansas City Center
Tue 11:56:59 PM 37.7228 -97.3886 203° Southwest 124 143 2,300 -100 Descending Kansas City Center
Tue 11:57:03 PM 37.7239 -97.3900 315° West 132 152 2,300 -300 Level Kansas City Center
Tue 11:57:59 PM 37.6908 -97.4042 199° South 122 140 2,000 -295 Descending Kansas City Center
Tue 11:58:04 PM 37.6922 -97.4050 335° Northwest 126 145 2,000 -545 Level Kansas City Center
Tue 11:59:05 PM 37.6578 -97.4197 199° South 123 142 1,400 -590 Descending Kansas City Center

Login

Don't have an account? Register now (free) for customized features, flight alerts, and more!